EDV1246 KCLE-KLGA
Flight info
| Callsign | EDV1246 |
|---|---|
| Flight time | N/A |
| Altitude | 37000 |
| Route | PFLYD1 MAAJR ETG MIP4 |
| Aircraft | CRJ9/M-SDFGIRWY/S |
Departure
| Time | 2026-04-30 20:48 |
|---|---|
| Airport | Cleveland Hopkins International Airport (KCLE) |
Arrival
| Time | N/A |
|---|---|
| Airport | LaGuardia Airport (KLGA) |
| Time | Latitude | Longitude | Altitude | Speed | Heading |
|---|---|---|---|---|---|
| 2026-04-30 20:06 | 41.41248 | -81.83908 | 767 ft | 0 kts | 93° |
| 2026-04-30 20:34 | 41.41249 | -81.83934 | 765 ft | 3 kts | 93° |
| 2026-04-30 20:35 | 41.41250 | -81.83959 | 765 ft | 3 kts | 83° |
| 2026-04-30 20:35 | 41.41242 | -81.83977 | 765 ft | 0 kts | 30° |
| 2026-04-30 20:42 | 41.41243 | -81.83977 | 763 ft | 0 kts | 26° |
| 2026-04-30 20:42 | 41.41245 | -81.83975 | 763 ft | 1 kts | 26° |
| 2026-04-30 20:42 | 41.41267 | -81.83973 | 763 ft | 5 kts | 350° |
| 2026-04-30 20:43 | 41.41305 | -81.83997 | 763 ft | 6 kts | 316° |
| 2026-04-30 20:43 | 41.41328 | -81.84049 | 763 ft | 7 kts | 290° |
| 2026-04-30 20:43 | 41.41348 | -81.84113 | 763 ft | 8 kts | 302° |
| 2026-04-30 20:44 | 41.41426 | -81.84152 | 763 ft | 8 kts | 10° |
| 2026-04-30 20:44 | 41.41444 | -81.84149 | 763 ft | 0 kts | 2° |
| 2026-04-30 20:46 | 41.41464 | -81.84154 | 761 ft | 5 kts | 337° |
| 2026-04-30 20:46 | 41.41496 | -81.84192 | 760 ft | 8 kts | 297° |
| 2026-04-30 20:47 | 41.41436 | -81.84353 | 761 ft | 11 kts | 229° |
| 2026-04-30 20:47 | 41.41386 | -81.84430 | 762 ft | 11 kts | 229° |
| 2026-04-30 20:48 | 41.40762 | -81.85427 | 761 ft | 141 kts | 230° |
| 2026-04-30 20:48 | 41.40009 | -81.86548 | 1063 ft | 175 kts | 226° |
| 2026-04-30 20:48 | 41.39080 | -81.87710 | 1835 ft | 191 kts | 227° |
| 2026-04-30 20:48 | 41.38132 | -81.88874 | 2844 ft | 186 kts | 228° |
| 2026-04-30 20:49 | 41.37260 | -81.90085 | 3767 ft | 182 kts | 233° |
| 2026-04-30 20:49 | 41.36419 | -81.91360 | 4333 ft | 183 kts | 234° |
| 2026-04-30 20:49 | 41.35602 | -81.92687 | 4892 ft | 186 kts | 238° |
| 2026-04-30 20:50 | 41.35262 | -81.95985 | 5941 ft | 186 kts | 285° |
| 2026-04-30 20:50 | 41.35775 | -81.97540 | 6505 ft | 195 kts | 300° |
| 2026-04-30 20:50 | 41.36702 | -81.98970 | 6844 ft | 208 kts | 317° |
| 2026-04-30 20:50 | 41.37871 | -81.99925 | 7837 ft | 183 kts | 328° |
| 2026-04-30 20:51 | 41.38953 | -82.00825 | 8364 ft | 192 kts | 321° |
| 2026-04-30 20:51 | 41.40759 | -82.02710 | 10229 ft | 147 kts | 316° |
| 2026-04-30 20:51 | 41.41765 | -82.03826 | 9490 ft | 229 kts | 316° |